Time;durP1;ratioP1;P1;durP2;ratioP2;P2;SDS_P1;SDS_P2;PMS_P1;PMS_P2;Temp;Humidity;BMP_temperature;BMP_pressure;BME280_temperature;BME280_humidity;BME280_pressure;Samples;Min_cycle;Max_cycle;Signal;HPM_P1;HPM_P2
2024/01/03 00:01:35;;;;;;;8.30;0.85;;;8.40;99.90;;;;;;5112299;28;20043;-83
2024/01/03 00:04:01;;;;;;;9.32;1.20;;;8.50;99.90;;;;;;5112887;28;20043;-83
2024/01/03 00:06:35;;;;;;;10.73;1.63;;;8.80;99.90;;;;;;5096007;28;20047;-83
2024/01/03 00:09:02;;;;;;;11.37;2.50;;;8.40;99.90;;;;;;5098736;28;20055;-83
2024/01/03 00:11:30;;;;;;;8.13;1.20;;;8.40;99.90;;;;;;5096867;28;20052;-82
2024/01/03 00:14:08;;;;;;;10.07;1.30;;;8.40;99.90;;;;;;5099323;28;20036;-83
2024/01/03 00:16:37;;;;;;;9.65;1.33;;;8.50;99.90;;;;;;5098645;28;20560;-84
2024/01/03 00:19:03;;;;;;;10.52;1.20;;;9.10;99.90;;;;;;5098788;28;20480;-82
2024/01/03 00:21:29;;;;;;;8.85;1.10;;;8.30;99.90;;;;;;5098920;28;20051;-83
2024/01/03 00:24:07;;;;;;;6.35;1.02;;;8.90;99.90;;;;;;5080933;28;20400;-82
2024/01/03 00:26:34;;;;;;;10.45;0.90;;;8.30;99.90;;;;;;5078305;28;20040;-83
2024/01/03 00:29:03;;;;;;;12.25;1.40;;;8.30;99.90;;;;;;5096510;28;20090;-82
2024/01/03 00:31:41;;;;;;;7.68;1.48;;;9.00;99.90;;;;;;5105633;28;20048;-84
2024/01/03 00:34:39;;;;;;;10.52;1.25;;;8.20;99.90;;;;;;5084463;28;20044;-83
2024/01/03 00:37:18;;;;;;;10.80;1.40;;;8.70;99.90;;;;;;5033401;28;20072;-83
2024/01/03 00:39:45;;;;;;;10.55;1.60;;;8.10;99.90;;;;;;5037168;28;20541;-83
2024/01/03 00:42:10;;;;;;;8.93;1.10;;;8.50;99.90;;;;;;5053714;28;20107;-83
2024/01/03 00:44:36;;;;;;;11.00;1.23;;;8.20;99.90;;;;;;5053719;28;20444;-83
2024/01/03 00:47:02;;;;;;;9.07;1.00;;;8.80;99.90;;;;;;5053644;28;20520;-82
2024/01/03 00:49:28;;;;;;;11.77;1.58;;;8.10;99.90;;;;;;5016482;28;20048;-82
2024/01/03 00:51:55;;;;;;;16.92;1.88;;;8.80;99.90;;;;;;5033665;28;20095;-83
2024/01/03 00:54:22;;;;;;;14.43;1.50;;;8.20;99.90;;;;;;5016915;28;20133;-83
2024/01/03 00:56:49;;;;;;;12.02;1.50;;;8.80;99.90;;;;;;5033518;28;20064;-83
2024/01/03 00:59:16;;;;;;;21.08;2.05;;;8.00;99.90;;;;;;5033536;28;20480;-82
2024/01/03 01:01:42;;;;;;;15.30;1.60;;;8.20;99.90;;;;;;5016795;28;20102;-83
2024/01/03 01:04:09;;;;;;;5.10;1.15;;;7.90;99.90;;;;;;5034492;28;20041;-82
2024/01/03 01:06:35;;;;;;;11.57;1.70;;;8.00;99.90;;;;;;5016966;28;20508;-82
2024/01/03 01:09:03;;;;;;;13.90;1.52;;;8.20;99.90;;;;;;5040281;28;20068;-84
2024/01/03 01:11:30;;;;;;;10.38;1.73;;;8.20;99.90;;;;;;5036514;28;20081;-82
2024/01/03 01:13:56;;;;;;;17.27;2.17;;;8.20;99.90;;;;;;5035321;28;20389;-83
2024/01/03 01:16:21;;;;;;;10.13;1.52;;;8.10;99.90;;;;;;5092797;28;20056;-83
2024/01/03 01:18:47;;;;;;;11.82;1.55;;;8.10;99.90;;;;;;5096514;28;20042;-82
2024/01/03 01:21:13;;;;;;;15.35;1.48;;;8.00;99.90;;;;;;5115873;28;20476;-83
2024/01/03 01:23:42;;;;;;;12.38;1.80;;;8.40;99.90;;;;;;5097485;28;20039;-82
2024/01/03 01:26:08;;;;;;;13.63;1.30;;;8.70;99.90;;;;;;5095212;28;20040;-82
2024/01/03 01:28:34;;;;;;;17.90;1.85;;;8.80;99.90;;;;;;5077099;28;20550;-82
2024/01/03 01:30:59;;;;;;;18.25;1.88;;;8.50;99.90;;;;;;5077002;28;20240;-82
2024/01/03 01:33:25;;;;;;;15.15;1.73;;;8.00;99.90;;;;;;5077173;28;20113;-82
2024/01/03 01:35:51;;;;;;;17.63;1.70;;;8.90;99.90;;;;;;5073560;28;20155;-81
2024/01/03 01:38:16;;;;;;;10.15;1.45;;;8.00;99.90;;;;;;5075903;28;20044;-82
2024/01/03 01:40:42;;;;;;;13.13;1.95;;;8.60;99.90;;;;;;5094942;28;20047;-82
2024/01/03 01:43:08;;;;;;;12.98;1.48;;;8.00;99.90;;;;;;5094912;28;20404;-82
2024/01/03 01:45:34;;;;;;;14.55;2.22;;;8.00;99.90;;;;;;5077446;28;20392;-82
2024/01/03 01:48:00;;;;;;;15.85;2.38;;;8.60;99.90;;;;;;5076793;28;20040;-82
2024/01/03 01:50:26;;;;;;;25.05;2.22;;;8.50;99.90;;;;;;5076517;28;20047;-82
2024/01/03 01:52:53;;;;;;;15.55;1.77;;;8.20;99.90;;;;;;5076559;28;20119;-82
2024/01/03 01:55:21;;;;;;;13.88;1.63;;;8.40;99.90;;;;;;5094470;28;20048;-83
2024/01/03 01:57:47;;;;;;;10.82;2.13;;;8.70;99.90;;;;;;5076519;28;20096;-83
2024/01/03 02:00:13;;;;;;;15.10;1.52;;;8.30;99.90;;;;;;5094790;28;20048;-82
2024/01/03 02:02:42;;;;;;;13.43;2.25;;;8.00;99.90;;;;;;5076851;28;20040;-82
2024/01/03 02:05:09;;;;;;;16.15;1.40;;;8.30;99.90;;;;;;5076789;28;20438;-83
2024/01/03 02:07:35;;;;;;;16.08;1.50;;;8.40;99.90;;;;;;5094089;28;20488;-83
2024/01/03 02:10:01;;;;;;;11.60;1.67;;;9.10;99.90;;;;;;5108222;28;20101;-83
2024/01/03 02:12:28;;;;;;;17.40;1.63;;;8.50;99.90;;;;;;5096814;28;20463;-83
2024/01/03 02:14:54;;;;;;;16.55;1.70;;;8.30;99.90;;;;;;5076094;28;20381;-82
2024/01/03 02:17:21;;;;;;;14.23;1.67;;;8.10;99.90;;;;;;5094505;28;20047;-83
2024/01/03 02:19:46;;;;;;;14.38;1.50;;;8.20;99.90;;;;;;5093188;28;20090;-84
2024/01/03 02:22:12;;;;;;;15.70;2.10;;;8.60;99.90;;;;;;5113075;28;20067;-84
2024/01/03 02:24:38;;;;;;;15.07;2.00;;;8.10;99.90;;;;;;5095753;28;20475;-82
2024/01/03 02:27:03;;;;;;;10.20;1.40;;;8.80;99.90;;;;;;5114492;28;20032;-84
2024/01/03 02:29:29;;;;;;;11.90;1.80;;;8.10;99.90;;;;;;5114137;28;20043;-82
2024/01/03 02:31:55;;;;;;;17.05;1.60;;;8.90;99.90;;;;;;5114747;28;20047;-83
2024/01/03 02:34:20;;;;;;;19.08;2.15;;;8.60;99.90;;;;;;5094893;28;20054;-83
2024/01/03 02:36:51;;;;;;;12.93;1.60;;;8.10;99.90;;;;;;5079110;28;20039;-83
2024/01/03 02:39:16;;;;;;;16.20;1.67;;;8.10;99.90;;;;;;5114271;28;20097;-83
2024/01/03 02:41:42;;;;;;;18.60;2.10;;;8.80;99.90;;;;;;5092165;28;20044;-83
2024/01/03 02:44:08;;;;;;;15.15;1.92;;;8.10;99.90;;;;;;5062642;28;20047;-83
2024/01/03 02:46:33;;;;;;;13.05;1.58;;;8.60;99.90;;;;;;5075634;28;20047;-83
2024/01/03 02:48:59;;;;;;;18.02;1.73;;;8.50;99.90;;;;;;5083749;28;20095;-82
2024/01/03 02:51:24;;;;;;;16.35;1.98;;;8.10;99.90;;;;;;5114169;28;20503;-83
2024/01/03 02:53:50;;;;;;;14.88;1.33;;;8.70;99.90;;;;;;5103372;28;20403;-83
2024/01/03 02:56:16;;;;;;;12.85;1.63;;;8.10;99.90;;;;;;5095259;28;20048;-83
2024/01/03 02:58:42;;;;;;;15.05;1.55;;;8.10;99.90;;;;;;5078682;28;20079;-85
2024/01/03 03:01:07;;;;;;;15.43;1.70;;;8.50;99.90;;;;;;5113241;27;20040;-83
2024/01/03 03:03:33;;;;;;;16.85;1.85;;;9.00;99.90;;;;;;5078380;28;20065;-83
2024/01/03 03:05:59;;;;;;;13.85;1.90;;;8.30;99.90;;;;;;5095414;28;20051;-82
2024/01/03 03:08:25;;;;;;;22.25;1.63;;;9.00;99.90;;;;;;5094542;28;20553;-82
2024/01/03 03:10:51;;;;;;;12.52;2.13;;;8.10;99.90;;;;;;5086582;28;20052;-83
2024/01/03 03:13:17;;;;;;;14.68;1.98;;;8.70;99.90;;;;;;5085778;27;20485;-82
2024/01/03 03:15:42;;;;;;;16.45;1.40;;;9.00;99.90;;;;;;5116010;27;20043;-82
2024/01/03 03:18:08;;;;;;;15.18;1.65;;;8.60;99.90;;;;;;5098736;27;20039;-83
2024/01/03 03:20:34;;;;;;;17.33;1.55;;;8.40;99.90;;;;;;5115570;27;20495;-83
2024/01/03 03:23:00;;;;;;;15.10;1.88;;;8.10;99.90;;;;;;5118728;27;20047;-83
2024/01/03 03:25:25;;;;;;;20.17;1.25;;;8.70;99.90;;;;;;5113260;28;20040;-82
2024/01/03 03:27:51;;;;;;;13.68;1.15;;;8.20;99.90;;;;;;5113523;28;20400;-83
2024/01/03 03:30:17;;;;;;;15.35;1.98;;;8.50;99.90;;;;;;5095108;28;20054;-83
2024/01/03 03:32:45;;;;;;;9.50;1.65;;;8.50;99.90;;;;;;5113554;28;20035;-84
2024/01/03 03:35:11;;;;;;;18.85;2.00;;;8.40;99.90;;;;;;5095055;28;20050;-83
2024/01/03 03:37:39;;;;;;;20.73;2.25;;;8.40;99.90;;;;;;5113201;28;20040;-84
2024/01/03 03:40:07;;;;;;;5.93;1.17;;;8.20;99.90;;;;;;5113275;28;20046;-83
2024/01/03 03:42:33;;;;;;;10.82;1.17;;;8.20;99.90;;;;;;5112690;28;20089;-84
2024/01/03 03:44:59;;;;;;;13.80;1.38;;;8.20;99.90;;;;;;5095217;28;20123;-83
2024/01/03 03:47:24;;;;;;;7.53;1.40;;;8.40;99.90;;;;;;5095300;28;20048;-83
2024/01/03 03:49:50;;;;;;;6.20;0.98;;;8.30;99.90;;;;;;5112814;28;20093;-83
2024/01/03 03:52:16;;;;;;;11.93;0.80;;;8.40;99.90;;;;;;5094837;28;20473;-83
2024/01/03 03:54:41;;;;;;;10.63;1.60;;;8.40;99.90;;;;;;5078234;28;20092;-84
2024/01/03 03:57:07;;;;;;;11.60;1.35;;;8.30;99.90;;;;;;5094256;28;20480;-84
2024/01/03 03:59:34;;;;;;;12.50;1.33;;;8.30;99.90;;;;;;5094801;28;20047;-82
2024/01/03 04:01:59;;;;;;;15.48;1.30;;;8.70;99.90;;;;;;5113009;28;20051;-83
2024/01/03 04:04:25;;;;;;;12.20;1.70;;;8.20;99.90;;;;;;5095033;28;20036;-83
2024/01/03 04:06:51;;;;;;;9.70;1.20;;;8.30;99.90;;;;;;5094600;28;20134;-83
2024/01/03 04:09:19;;;;;;;16.13;1.50;;;9.00;99.90;;;;;;5094334;28;20043;-84
2024/01/03 04:11:45;;;;;;;14.88;1.40;;;8.80;99.90;;;;;;5094764;28;20130;-83
2024/01/03 04:14:11;;;;;;;10.45;1.30;;;8.50;99.90;;;;;;5094827;28;20597;-83
2024/01/03 04:16:37;;;;;;;8.35;0.90;;;8.30;99.90;;;;;;5110409;28;20501;-83
2024/01/03 04:19:03;;;;;;;11.10;1.13;;;8.30;99.90;;;;;;5091100;28;20115;-83
2024/01/03 04:21:30;;;;;;;8.50;0.90;;;9.20;99.90;;;;;;5091489;28;20201;-83
2024/01/03 04:23:55;;;;;;;13.57;1.75;;;9.00;99.90;;;;;;5074442;28;20044;-82
2024/01/03 04:26:22;;;;;;;14.55;1.15;;;8.40;99.90;;;;;;5091580;28;20396;-83
2024/01/03 04:28:47;;;;;;;13.48;2.42;;;8.90;99.90;;;;;;5092335;28;20047;-84
2024/01/03 04:31:13;;;;;;;6.75;0.75;;;8.70;99.90;;;;;;5103163;28;20051;-82
2024/01/03 04:33:39;;;;;;;5.88;0.80;;;8.20;99.90;;;;;;5088677;28;20040;-83
2024/01/03 04:36:05;;;;;;;8.57;0.70;;;8.90;99.90;;;;;;5092369;28;20071;-83
2024/01/03 04:38:31;;;;;;;10.05;1.08;;;8.30;99.90;;;;;;5092116;28;20497;-83
2024/01/03 04:40:56;;;;;;;8.20;1.15;;;8.30;99.90;;;;;;5091273;28;20055;-83
2024/01/03 04:43:22;;;;;;;3.65;0.55;;;8.20;99.90;;;;;;5092472;28;20139;-83
2024/01/03 04:45:48;;;;;;;7.43;1.00;;;9.00;99.90;;;;;;5092123;28;20044;-83
2024/01/03 04:48:13;;;;;;;10.93;1.15;;;9.00;99.90;;;;;;5090976;28;20048;-83
2024/01/03 04:50:39;;;;;;;9.65;1.50;;;8.30;99.90;;;;;;5090718;28;20097;-83
2024/01/03 04:53:05;;;;;;;11.00;1.30;;;8.30;99.90;;;;;;5094508;28;20089;-83
2024/01/03 04:55:30;;;;;;;8.57;1.55;;;8.30;99.90;;;;;;5095923;28;20126;-83
2024/01/03 04:57:58;;;;;;;7.63;1.10;;;8.80;99.90;;;;;;5095882;28;20044;-83
2024/01/03 05:00:23;;;;;;;12.73;1.30;;;8.40;99.90;;;;;;5094764;28;20039;-83
2024/01/03 05:02:51;;;;;;;10.55;1.40;;;8.30;99.90;;;;;;5094616;28;20373;-83
2024/01/03 05:05:17;;;;;;;8.35;1.42;;;8.20;99.90;;;;;;5105408;27;20381;-83
2024/01/03 05:07:43;;;;;;;10.40;1.38;;;8.30;99.90;;;;;;5115163;28;20035;-82
2024/01/03 05:10:09;;;;;;;8.52;1.02;;;8.90;99.90;;;;;;5080625;28;20442;-83
2024/01/03 05:12:35;;;;;;;10.23;0.98;;;8.20;99.90;;;;;;5097667;28;20043;-83
2024/01/03 05:15:02;;;;;;;9.57;1.20;;;8.20;99.90;;;;;;5115381;28;20066;-83
2024/01/03 05:17:28;;;;;;;8.02;1.10;;;8.20;99.90;;;;;;5097966;28;20047;-83
2024/01/03 05:19:55;;;;;;;11.90;1.50;;;8.20;99.90;;;;;;5097759;28;20048;-83
2024/01/03 05:22:20;;;;;;;6.50;1.17;;;8.70;99.90;;;;;;5116001;28;20436;-83
2024/01/03 05:24:46;;;;;;;5.72;1.05;;;8.60;99.90;;;;;;5080632;28;20052;-83
2024/01/03 05:27:12;;;;;;;8.38;1.38;;;8.30;99.90;;;;;;5080658;28;20046;-83
2024/01/03 05:29:38;;;;;;;11.98;1.27;;;8.60;99.90;;;;;;5097126;28;20071;-83
2024/01/03 05:32:05;;;;;;;14.32;1.10;;;9.00;99.90;;;;;;5097293;28;20047;-83
2024/01/03 05:34:30;;;;;;;8.20;1.23;;;8.30;99.90;;;;;;5097360;28;20079;-83
2024/01/03 05:36:56;;;;;;;8.35;1.55;;;8.30;99.90;;;;;;5080615;28;20071;-83
2024/01/03 05:39:22;;;;;;;15.65;1.85;;;8.80;99.90;;;;;;5105594;28;20040;-85
2024/01/03 05:41:48;;;;;;;15.93;1.50;;;9.20;99.90;;;;;;5094102;28;20051;-83
2024/01/03 05:44:14;;;;;;;6.20;1.30;;;8.80;99.90;;;;;;5096606;28;20042;-84
2024/01/03 05:46:40;;;;;;;13.18;1.60;;;8.60;99.90;;;;;;5115387;28;20040;-84
2024/01/03 05:49:06;;;;;;;11.68;1.40;;;9.00;99.90;;;;;;5097154;28;20080;-85
2024/01/03 05:51:32;;;;;;;9.88;1.08;;;9.10;99.90;;;;;;5095769;28;20108;-83
2024/01/03 05:53:57;;;;;;;8.55;1.30;;;8.50;99.90;;;;;;5080155;28;20044;-83
2024/01/03 05:56:23;;;;;;;6.85;1.00;;;8.90;99.90;;;;;;5115419;28;20221;-84
2024/01/03 05:58:49;;;;;;;12.52;1.10;;;8.50;99.90;;;;;;5096521;28;20031;-84
2024/01/03 06:01:15;;;;;;;7.32;0.90;;;8.30;99.90;;;;;;5115063;28;20056;-84
2024/01/03 06:03:41;;;;;;;10.40;1.30;;;8.60;99.90;;;;;;5114585;28;20488;-84
2024/01/03 06:06:07;;;;;;;8.25;1.33;;;8.30;99.90;;;;;;5115137;28;20043;-83
2024/01/03 06:08:32;;;;;;;6.85;1.00;;;8.30;99.90;;;;;;5115258;28;20047;-83
2024/01/03 06:10:58;;;;;;;9.68;1.20;;;8.30;99.90;;;;;;5096501;28;20502;-84
2024/01/03 06:13:24;;;;;;;13.43;1.05;;;8.20;99.90;;;;;;5096149;28;20036;-83
2024/01/03 06:15:50;;;;;;;6.22;1.15;;;8.80;99.90;;;;;;5096116;28;20051;-84
2024/01/03 06:18:15;;;;;;;5.45;0.80;;;8.90;99.90;;;;;;5092556;28;20060;-84
2024/01/03 06:20:41;;;;;;;5.63;0.80;;;8.40;99.90;;;;;;5096641;28;20044;-84
2024/01/03 06:23:07;;;;;;;6.63;1.25;;;8.20;99.90;;;;;;5093073;28;20043;-83
2024/01/03 06:25:33;;;;;;;7.80;0.90;;;8.10;99.90;;;;;;5092857;28;20044;-84
2024/01/03 06:27:58;;;;;;;11.02;1.75;;;8.30;99.90;;;;;;5093108;28;20040;-84
2024/01/03 06:30:24;;;;;;;11.52;1.70;;;8.10;99.90;;;;;;5094534;28;20048;-84
2024/01/03 06:32:50;;;;;;;20.38;2.25;;;8.20;99.90;;;;;;5096179;28;20126;-84
2024/01/03 06:35:15;;;;;;;30.58;3.58;;;8.60;99.90;;;;;;5078790;28;20365;-84
2024/01/03 06:37:41;;;;;;;26.70;2.92;;;9.00;99.90;;;;;;5079651;28;20047;-84
2024/01/03 06:40:07;;;;;;;18.27;2.72;;;8.80;99.90;;;;;;5096144;28;20055;-84
2024/01/03 06:42:33;;;;;;;14.45;2.40;;;8.20;99.90;;;;;;5079741;28;20468;-85
2024/01/03 06:44:59;;;;;;;20.60;3.70;;;8.30;99.90;;;;;;5096171;28;20051;-84
2024/01/03 06:47:24;;;;;;;14.05;2.67;;;9.10;99.90;;;;;;5113796;28;20400;-84
2024/01/03 06:49:50;;;;;;;21.52;2.22;;;8.30;99.90;;;;;;5114181;28;20047;-83
2024/01/03 06:52:16;;;;;;;11.80;1.77;;;8.30;99.90;;;;;;5091198;28;20051;-83
2024/01/03 06:54:42;;;;;;;15.48;1.98;;;8.40;99.90;;;;;;5094089;28;20047;-85
2024/01/03 06:57:07;;;;;;;28.05;2.65;;;8.30;99.90;;;;;;5093680;28;20051;-84
2024/01/03 06:59:35;;;;;;;18.73;2.47;;;9.00;99.90;;;;;;5075325;28;20043;-84
2024/01/03 07:02:01;;;;;;;22.65;3.28;;;8.90;99.90;;;;;;5075404;28;20060;-84
2024/01/03 07:04:26;;;;;;;27.50;2.40;;;8.20;99.90;;;;;;5075228;28;20059;-85
2024/01/03 07:06:52;;;;;;;19.58;2.50;;;8.80;99.90;;;;;;5078257;28;20043;-85
2024/01/03 07:09:18;;;;;;;32.50;3.47;;;8.70;99.90;;;;;;5094844;28;20039;-84
2024/01/03 07:11:43;;;;;;;30.27;3.45;;;8.30;99.90;;;;;;5078515;28;20083;-84
2024/01/03 07:14:12;;;;;;;21.63;3.22;;;8.50;99.90;;;;;;5113886;28;20056;-84
2024/01/03 07:16:38;;;;;;;24.02;3.63;;;9.00;99.90;;;;;;5077787;28;20044;-86
2024/01/03 07:19:04;;;;;;;19.17;3.15;;;8.70;99.90;;;;;;5078443;28;20506;-83
2024/01/03 07:21:30;;;;;;;26.73;3.83;;;8.30;99.90;;;;;;5094590;27;20447;-84
2024/01/03 07:23:56;;;;;;;30.75;3.47;;;8.50;99.90;;;;;;5082264;28;20059;-84
2024/01/03 07:26:22;;;;;;;24.50;2.83;;;8.40;99.90;;;;;;5111798;28;20088;-85
2024/01/03 07:28:47;;;;;;;17.00;3.17;;;8.30;99.90;;;;;;5095170;28;20066;-85
2024/01/03 07:31:13;;;;;;;32.55;4.15;;;8.30;99.90;;;;;;5095121;28;20092;-84
2024/01/03 07:33:40;;;;;;;27.27;3.72;;;8.40;99.90;;;;;;5094051;28;20067;-85
2024/01/03 07:36:06;;;;;;;24.58;2.92;;;9.00;99.90;;;;;;5078073;28;20065;-84
2024/01/03 07:38:32;;;;;;;24.45;3.50;;;8.40;99.90;;;;;;5107014;27;20030;-84
2024/01/03 07:40:59;;;;;;;22.40;2.67;;;9.20;99.90;;;;;;5090434;28;20046;-87
2024/01/03 07:43:26;;;;;;;24.58;3.30;;;8.40;99.90;;;;;;5075899;28;20040;-86
2024/01/03 07:45:52;;;;;;;29.60;3.95;;;8.30;99.90;;;;;;5090761;28;20146;-86
2024/01/03 07:48:18;;;;;;;28.85;3.50;;;8.80;99.90;;;;;;5094877;28;20134;-84
2024/01/03 07:50:44;;;;;;;26.42;3.58;;;8.70;99.90;;;;;;5091123;28;20094;-84
2024/01/03 07:53:09;;;;;;;23.23;2.78;;;8.40;99.90;;;;;;5093110;28;20044;-85
2024/01/03 07:55:35;;;;;;;24.92;3.55;;;9.10;99.90;;;;;;5089647;28;20043;-84
2024/01/03 07:58:01;;;;;;;30.80;3.42;;;8.40;99.90;;;;;;5111505;27;20047;-83
2024/01/03 08:00:30;;;;;;;19.92;2.83;;;9.00;99.90;;;;;;5107278;28;20051;-83
2024/01/03 08:02:59;;;;;;;28.33;3.83;;;8.60;99.90;;;;;;5112685;28;20031;-83
2024/01/03 08:05:25;;;;;;;20.85;2.63;;;8.40;99.90;;;;;;5094773;28;20059;-84
2024/01/03 08:07:50;;;;;;;22.42;2.70;;;8.70;99.90;;;;;;5112662;28;20048;-83
2024/01/03 08:10:16;;;;;;;23.58;2.33;;;8.40;99.90;;;;;;5112743;28;20081;-83
2024/01/03 08:12:42;;;;;;;16.15;3.03;;;8.70;99.90;;;;;;5094773;28;20448;-83
2024/01/03 08:15:08;;;;;;;20.45;3.50;;;8.70;99.90;;;;;;5094736;28;20496;-83
2024/01/03 08:17:34;;;;;;;18.50;2.50;;;8.40;99.90;;;;;;5094799;28;20036;-83
2024/01/03 08:20:00;;;;;;;25.73;3.03;;;8.70;99.90;;;;;;5094677;28;20088;-83
2024/01/03 08:22:26;;;;;;;20.65;2.92;;;8.60;99.90;;;;;;5095196;28;20039;-83
2024/01/03 08:24:52;;;;;;;23.95;3.55;;;8.40;99.90;;;;;;5113062;28;20403;-83
2024/01/03 08:27:18;;;;;;;19.08;2.83;;;8.60;99.90;;;;;;5095797;28;20097;-83
2024/01/03 08:29:44;;;;;;;21.77;4.00;;;8.50;99.90;;;;;;5098412;28;20051;-83
2024/01/03 08:32:09;;;;;;;20.40;4.07;;;8.50;99.90;;;;;;5098786;28;20055;-83
2024/01/03 08:34:35;;;;;;;21.15;3.03;;;8.60;99.90;;;;;;5116826;28;20480;-83
2024/01/03 08:37:01;;;;;;;24.10;3.33;;;8.60;99.90;;;;;;5098417;28;20047;-83
2024/01/03 08:39:27;;;;;;;26.60;2.97;;;8.40;99.90;;;;;;5116957;28;20050;-84
2024/01/03 08:41:53;;;;;;;20.77;2.42;;;8.80;99.90;;;;;;5116912;28;20040;-83
2024/01/03 08:44:20;;;;;;;24.08;2.60;;;8.40;99.90;;;;;;5116693;28;20040;-83
2024/01/03 08:46:45;;;;;;;22.13;3.17;;;8.90;99.90;;;;;;5081544;28;20036;-83
2024/01/03 08:49:12;;;;;;;20.17;3.53;;;9.20;99.90;;;;;;5098750;28;20054;-83
2024/01/03 08:51:37;;;;;;;23.10;2.42;;;8.40;99.90;;;;;;5098550;28;20122;-84
2024/01/03 08:54:03;;;;;;;23.98;2.58;;;8.70;99.90;;;;;;5098828;28;20123;-83
2024/01/03 08:56:29;;;;;;;18.83;2.40;;;9.30;99.90;;;;;;5098913;28;20454;-84
2024/01/03 08:58:54;;;;;;;13.75;2.72;;;8.40;99.90;;;;;;5117108;28;20055;-84
2024/01/03 09:01:27;;;;;;;12.40;1.83;;;8.40;99.90;;;;;;5082207;28;20123;-83
2024/01/03 09:03:53;;;;;;;18.45;2.00;;;8.40;99.90;;;;;;5098440;28;20112;-84
2024/01/03 09:06:21;;;;;;;9.40;1.65;;;9.00;99.90;;;;;;5098424;28;20051;-83
2024/01/03 09:08:50;;;;;;;22.98;2.17;;;9.00;99.90;;;;;;5098530;28;20040;-83
2024/01/03 09:11:23;;;;;;;10.35;1.10;;;8.40;99.90;;;;;;5097962;28;20062;-83
2024/01/03 09:13:49;;;;;;;9.45;1.35;;;8.40;99.90;;;;;;5081449;28;20040;-84
2024/01/03 09:16:20;;;;;;;9.82;1.80;;;8.40;99.90;;;;;;5098814;28;20043;-83
2024/01/03 09:18:46;;;;;;;11.02;1.60;;;8.30;99.90;;;;;;5098208;28;20079;-84
2024/01/03 09:21:13;;;;;;;19.65;1.88;;;8.40;99.90;;;;;;5081277;28;20487;-84
2024/01/03 09:23:42;;;;;;;14.18;1.63;;;8.80;99.90;;;;;;5116602;28;20036;-83
2024/01/03 09:26:10;;;;;;;15.90;2.17;;;8.50;99.90;;;;;;5116519;28;20047;-84
2024/01/03 09:28:39;;;;;;;28.38;2.88;;;8.60;99.90;;;;;;5116541;28;20508;-83
2024/01/03 09:31:05;;;;;;;15.48;2.70;;;8.50;99.90;;;;;;5097961;28;20047;-83
2024/01/03 09:33:31;;;;;;;14.60;2.63;;;8.90;99.90;;;;;;5098107;28;20047;-83
2024/01/03 09:35:56;;;;;;;18.80;2.30;;;8.80;99.90;;;;;;5097792;28;20413;-84
2024/01/03 09:38:22;;;;;;;21.80;2.58;;;8.80;99.90;;;;;;5080284;28;20031;-83
2024/01/03 09:40:48;;;;;;;22.10;2.30;;;8.90;99.90;;;;;;5097521;28;20051;-84
2024/01/03 09:43:15;;;;;;;23.58;2.67;;;8.60;99.90;;;;;;5097678;28;20042;-84
2024/01/03 09:45:41;;;;;;;18.98;2.10;;;8.60;99.90;;;;;;5080961;28;20055;-83
2024/01/03 09:48:09;;;;;;;18.58;2.63;;;8.50;99.90;;;;;;5115763;28;20548;-83
2024/01/03 09:50:38;;;;;;;17.40;2.00;;;9.40;99.90;;;;;;5097384;28;20052;-83
2024/01/03 09:53:05;;;;;;;11.93;1.92;;;9.10;99.90;;;;;;5116023;28;20092;-83
2024/01/03 09:55:32;;;;;;;19.30;2.00;;;8.80;99.90;;;;;;5097911;28;20400;-83
2024/01/03 09:57:58;;;;;;;18.42;2.20;;;8.80;99.90;;;;;;5080593;28;20051;-83
2024/01/03 10:00:29;;;;;;;22.13;3.08;;;8.60;99.90;;;;;;5097408;28;20044;-84
2024/01/03 10:03:00;;;;;;;7.15;1.50;;;8.80;99.90;;;;;;5097127;28;20035;-84
2024/01/03 10:05:26;;;;;;;16.73;2.10;;;8.60;99.90;;;;;;5097217;28;20047;-83
2024/01/03 10:07:52;;;;;;;26.10;2.58;;;8.70;99.90;;;;;;5096942;28;20072;-83
2024/01/03 10:10:30;;;;;;;17.20;2.20;;;9.10;99.90;;;;;;5115297;28;20048;-83
2024/01/03 10:12:56;;;;;;;11.88;1.85;;;8.70;99.90;;;;;;5115276;28;20040;-83
2024/01/03 10:15:22;;;;;;;16.60;2.05;;;9.20;99.90;;;;;;5096988;28;20086;-83
2024/01/03 10:17:48;;;;;;;11.68;1.92;;;8.60;99.90;;;;;;5097213;28;20075;-83
2024/01/03 10:20:28;;;;;;;14.52;1.58;;;8.60;99.90;;;;;;5096906;28;20105;-83
2024/01/03 10:23:03;;;;;;;16.35;2.22;;;8.70;99.90;;;;;;5096754;28;20042;-83
2024/01/03 10:25:29;;;;;;;;;;;8.60;99.90;;;;;;5097603;28;20069;-83
2024/01/03 10:28:01;;;;;;;14.68;1.60;;;9.20;99.90;;;;;;5114965;28;19920;-83
2024/01/03 10:30:27;;;;;;;20.52;1.88;;;8.60;99.90;;;;;;5096615;28;20134;-83
2024/01/03 10:33:06;;;;;;;12.13;1.70;;;8.60;99.90;;;;;;5096961;28;20058;-83
2024/01/03 10:35:34;;;;;;;13.82;2.00;;;9.40;99.90;;;;;;5114971;28;20126;-83
2024/01/03 10:38:01;;;;;;;5.40;1.20;;;8.80;99.90;;;;;;5096788;28;20134;-83
2024/01/03 10:40:31;;;;;;;9.48;1.50;;;9.30;99.90;;;;;;5114743;28;20043;-84
2024/01/03 10:42:58;;;;;;;8.32;1.00;;;8.90;99.90;;;;;;5096746;28;20544;-83
2024/01/03 10:45:24;;;;;;;8.02;1.48;;;8.80;99.90;;;;;;5114677;28;20039;-83
2024/01/03 10:47:52;;;;;;;15.98;1.52;;;8.60;99.90;;;;;;5096728;28;20126;-83
2024/01/03 10:50:18;;;;;;;18.42;1.67;;;9.00;99.90;;;;;;5096317;28;20043;-83
2024/01/03 10:52:45;;;;;;;8.13;1.63;;;8.80;99.90;;;;;;5079106;28;20044;-83
2024/01/03 10:55:18;;;;;;;13.23;1.80;;;8.80;99.90;;;;;;5079668;28;20047;-83
2024/01/03 10:57:52;;;;;;;13.18;1.75;;;8.90;99.90;;;;;;5096532;28;20104;-83
2024/01/03 11:00:30;;;;;;;13.17;1.77;;;8.50;99.90;;;;;;5079762;28;20395;-83
2024/01/03 11:03:21;;;;;;;16.73;1.52;;;8.50;99.90;;;;;;5114377;28;20168;-83
2024/01/03 11:06:05;;;;;;;10.48;1.45;;;8.40;99.90;;;;;;5095897;28;20046;-83
2024/01/03 11:09:02;;;;;;;11.32;1.50;;;8.40;99.90;;;;;;5096283;28;20755;-84
2024/01/03 11:11:31;;;;;;;10.02;1.35;;;8.50;99.90;;;;;;5075748;28;20112;-83
2024/01/03 11:13:57;;;;;;;12.52;1.52;;;8.60;99.90;;;;;;5093812;28;20145;-83
2024/01/03 11:16:40;;;;;;;11.32;1.50;;;9.00;99.90;;;;;;5093743;28;20043;-83
2024/01/03 11:19:08;;;;;;;16.00;2.08;;;9.00;99.90;;;;;;5075897;28;20048;-83
2024/01/03 11:21:35;;;;;;;13.32;1.70;;;8.90;99.90;;;;;;5076073;28;20131;-83
2024/01/03 11:24:19;;;;;;;18.58;1.63;;;9.00;99.90;;;;;;5093811;28;20185;-84
2024/01/03 11:26:57;;;;;;;22.38;2.10;;;9.10;99.90;;;;;;5075556;28;20044;-83
2024/01/03 11:29:48;;;;;;;28.50;2.00;;;10.00;99.90;;;;;;5075636;28;20055;-83
2024/01/03 11:32:29;;;;;;;19.40;2.60;;;9.50;99.90;;;;;;5075586;28;20058;-83
2024/01/03 11:34:55;;;;;;;14.50;1.58;;;9.60;99.90;;;;;;5075360;28;20056;-84
2024/01/03 11:37:24;;;;;;;20.95;2.22;;;10.20;99.90;;;;;;5075295;28;20431;-84
2024/01/03 11:39:53;;;;;;;18.98;2.35;;;9.80;99.90;;;;;;5075591;28;20095;-84
2024/01/03 11:42:20;;;;;;;23.45;2.30;;;9.70;99.90;;;;;;5093354;28;20492;-84
2024/01/03 11:44:58;;;;;;;18.10;1.83;;;9.80;99.90;;;;;;5075358;28;20044;-84
2024/01/03 11:47:24;;;;;;;18.33;2.05;;;9.80;99.90;;;;;;5075232;28;20090;-83
2024/01/03 11:49:58;;;;;;;16.73;2.17;;;9.90;99.90;;;;;;5075187;28;20051;-84
2024/01/03 11:52:25;;;;;;;15.82;2.25;;;10.30;99.90;;;;;;5093215;28;20522;-84
2024/01/03 11:54:51;;;;;;;12.00;1.60;;;10.70;99.90;;;;;;5075039;28;20083;-83
2024/01/03 11:57:24;;;;;;;18.73;2.53;;;10.00;99.90;;;;;;5093135;28;20416;-84
2024/01/03 11:59:59;;;;;;;13.35;1.90;;;10.10;99.90;;;;;;5075022;28;20081;-84
2024/01/03 12:02:25;;;;;;;13.13;2.10;;;10.40;99.90;;;;;;5074587;28;20501;-84
2024/01/03 12:05:02;;;;;;;16.70;2.95;;;10.50;99.90;;;;;;5093301;28;20178;-83
2024/01/03 12:07:35;;;;;;;15.70;2.10;;;10.00;99.90;;;;;;5092899;28;20437;-83
2024/01/03 12:10:03;;;;;;;11.73;1.92;;;10.10;99.90;;;;;;5074901;28;20354;-84
2024/01/03 12:12:29;;;;;;;9.85;1.70;;;10.30;99.90;;;;;;5074869;28;20052;-84
2024/01/03 12:14:55;;;;;;;15.73;1.83;;;10.20;99.90;;;;;;5058167;28;20044;-84
2024/01/03 12:17:26;;;;;;;10.13;1.52;;;10.80;99.90;;;;;;5075164;28;20381;-84
2024/01/03 12:19:53;;;;;;;20.55;1.92;;;10.10;99.90;;;;;;5075030;28;20522;-84
2024/01/03 12:22:23;;;;;;;14.48;1.20;;;10.10;99.90;;;;;;5074862;28;20047;-84
2024/01/03 12:24:48;;;;;;;12.80;1.60;;;10.50;99.90;;;;;;5074868;28;20040;-84
2024/01/03 12:27:22;;;;;;;14.02;1.77;;;10.60;99.90;;;;;;5074957;28;20056;-84
2024/01/03 12:29:48;;;;;;;10.10;1.38;;;10.20;99.90;;;;;;5074948;28;20043;-84
2024/01/03 12:32:20;;;;;;;9.38;1.40;;;10.60;99.90;;;;;;5093018;28;20080;-85
2024/01/03 12:35:00;;;;;;;12.63;1.75;;;10.60;99.90;;;;;;5074971;28;20135;-84
2024/01/03 12:37:26;;;;;;;13.88;1.65;;;10.30;99.90;;;;;;5074508;28;20036;-84
2024/01/03 12:39:51;;;;;;;11.32;1.55;;;10.20;99.90;;;;;;5074803;28;20595;-84
2024/01/03 12:42:17;;;;;;;14.02;1.83;;;10.20;99.90;;;;;;5057955;28;20040;-84
2024/01/03 12:44:43;;;;;;;15.45;1.63;;;10.30;99.90;;;;;;5074673;28;20052;-83
2024/01/03 12:47:11;;;;;;;12.40;1.88;;;10.10;99.90;;;;;;5074574;28;20392;-84
2024/01/03 12:49:38;;;;;;;9.80;1.75;;;10.10;99.90;;;;;;5092760;28;20040;-84